sensor_id;sensor_type;location;lat;lon;timestamp;P1;durP1;ratioP1;P2;durP2;ratioP2
10045;SDS011;5063;50.878;4.742;2023-02-15T00:00:12;46.13;;;25.53;;
10045;SDS011;5063;50.878;4.742;2023-02-15T00:02:38;41.53;;;25.20;;
10045;SDS011;5063;50.878;4.742;2023-02-15T00:05:05;35.67;;;22.43;;
10045;SDS011;5063;50.878;4.742;2023-02-15T00:07:31;40.30;;;25.00;;
10045;SDS011;5063;50.878;4.742;2023-02-15T00:09:57;36.67;;;23.23;;
10045;SDS011;5063;50.878;4.742;2023-02-15T00:12:23;36.40;;;21.63;;
10045;SDS011;5063;50.878;4.742;2023-02-15T00:14:49;45.60;;;24.20;;
10045;SDS011;5063;50.878;4.742;2023-02-15T00:17:14;43.97;;;23.47;;
10045;SDS011;5063;50.878;4.742;2023-02-15T00:19:40;42.80;;;25.20;;
10045;SDS011;5063;50.878;4.742;2023-02-15T00:22:06;42.23;;;24.60;;
10045;SDS011;5063;50.878;4.742;2023-02-15T00:24:31;38.90;;;23.50;;
10045;SDS011;5063;50.878;4.742;2023-02-15T00:26:58;39.67;;;24.90;;
10045;SDS011;5063;50.878;4.742;2023-02-15T00:29:24;33.23;;;22.07;;
10045;SDS011;5063;50.878;4.742;2023-02-15T00:31:50;38.67;;;23.23;;
10045;SDS011;5063;50.878;4.742;2023-02-15T00:34:21;38.97;;;22.53;;
10045;SDS011;5063;50.878;4.742;2023-02-15T00:36:48;46.23;;;27.10;;
10045;SDS011;5063;50.878;4.742;2023-02-15T00:39:15;45.43;;;25.17;;
10045;SDS011;5063;50.878;4.742;2023-02-15T00:41:41;42.37;;;25.77;;
10045;SDS011;5063;50.878;4.742;2023-02-15T00:44:07;41.13;;;25.93;;
10045;SDS011;5063;50.878;4.742;2023-02-15T00:46:34;43.43;;;26.20;;
10045;SDS011;5063;50.878;4.742;2023-02-15T00:49:00;47.23;;;25.37;;
10045;SDS011;5063;50.878;4.742;2023-02-15T00:51:27;43.57;;;26.27;;
10045;SDS011;5063;50.878;4.742;2023-02-15T00:53:53;40.87;;;23.37;;
10045;SDS011;5063;50.878;4.742;2023-02-15T00:56:19;36.03;;;22.77;;
10045;SDS011;5063;50.878;4.742;2023-02-15T00:58:45;46.10;;;24.17;;
10045;SDS011;5063;50.878;4.742;2023-02-15T01:01:12;35.47;;;23.87;;
10045;SDS011;5063;50.878;4.742;2023-02-15T01:03:40;46.07;;;27.03;;
10045;SDS011;5063;50.878;4.742;2023-02-15T01:06:09;43.73;;;24.93;;
10045;SDS011;5063;50.878;4.742;2023-02-15T01:08:36;47.20;;;25.93;;
10045;SDS011;5063;50.878;4.742;2023-02-15T01:11:06;43.43;;;26.00;;
10045;SDS011;5063;50.878;4.742;2023-02-15T01:13:33;42.03;;;25.30;;
10045;SDS011;5063;50.878;4.742;2023-02-15T01:15:59;43.07;;;24.70;;
10045;SDS011;5063;50.878;4.742;2023-02-15T01:18:25;44.77;;;25.17;;
10045;SDS011;5063;50.878;4.742;2023-02-15T01:20:51;45.53;;;25.70;;
10045;SDS011;5063;50.878;4.742;2023-02-15T01:23:17;49.53;;;27.93;;
10045;SDS011;5063;50.878;4.742;2023-02-15T01:25:43;46.40;;;26.13;;
10045;SDS011;5063;50.878;4.742;2023-02-15T01:28:09;50.07;;;26.67;;
10045;SDS011;5063;50.878;4.742;2023-02-15T01:30:34;53.60;;;28.97;;
10045;SDS011;5063;50.878;4.742;2023-02-15T01:33:00;46.47;;;28.43;;
10045;SDS011;5063;50.878;4.742;2023-02-15T01:35:26;45.63;;;27.20;;
10045;SDS011;5063;50.878;4.742;2023-02-15T01:37:52;50.47;;;26.80;;
10045;SDS011;5063;50.878;4.742;2023-02-15T01:40:19;46.03;;;27.37;;
10045;SDS011;5063;50.878;4.742;2023-02-15T01:42:45;46.90;;;28.73;;
10045;SDS011;5063;50.878;4.742;2023-02-15T01:47:52;46.07;;;26.13;;
10045;SDS011;5063;50.878;4.742;2023-02-15T01:55:52;44.03;;;26.07;;
10045;SDS011;5063;50.878;4.742;2023-02-15T01:58:22;41.73;;;25.40;;
10045;SDS011;5063;50.878;4.742;2023-02-15T02:00:51;38.20;;;25.20;;
10045;SDS011;5063;50.878;4.742;2023-02-15T02:03:18;49.80;;;26.47;;
10045;SDS011;5063;50.878;4.742;2023-02-15T02:05:52;44.47;;;25.73;;
10045;SDS011;5063;50.878;4.742;2023-02-15T02:08:18;40.30;;;26.13;;
10045;SDS011;5063;50.878;4.742;2023-02-15T02:10:43;45.97;;;25.77;;
10045;SDS011;5063;50.878;4.742;2023-02-15T02:13:09;40.63;;;25.43;;
10045;SDS011;5063;50.878;4.742;2023-02-15T02:23:53;41.77;;;24.23;;
10045;SDS011;5063;50.878;4.742;2023-02-15T02:43:25;42.53;;;25.67;;
10045;SDS011;5063;50.878;4.742;2023-02-15T02:46:00;40.03;;;24.63;;
10045;SDS011;5063;50.878;4.742;2023-02-15T02:48:32;40.03;;;24.70;;
10045;SDS011;5063;50.878;4.742;2023-02-15T02:50:59;43.10;;;24.67;;
10045;SDS011;5063;50.878;4.742;2023-02-15T02:53:25;43.00;;;23.80;;
10045;SDS011;5063;50.878;4.742;2023-02-15T02:55:58;40.13;;;23.90;;
10045;SDS011;5063;50.878;4.742;2023-02-15T02:58:48;38.80;;;24.70;;
10045;SDS011;5063;50.878;4.742;2023-02-15T03:01:37;44.10;;;25.07;;
10045;SDS011;5063;50.878;4.742;2023-02-15T03:04:13;37.53;;;24.07;;
10045;SDS011;5063;50.878;4.742;2023-02-15T03:06:52;39.00;;;22.77;;
10045;SDS011;5063;50.878;4.742;2023-02-15T03:09:27;34.67;;;22.37;;
10045;SDS011;5063;50.878;4.742;2023-02-15T03:14:43;43.57;;;24.60;;
10045;SDS011;5063;50.878;4.742;2023-02-15T03:17:15;44.50;;;23.40;;
10045;SDS011;5063;50.878;4.742;2023-02-15T03:19:45;37.63;;;23.20;;
10045;SDS011;5063;50.878;4.742;2023-02-15T03:22:24;40.57;;;22.63;;
10045;SDS011;5063;50.878;4.742;2023-02-15T03:25:05;36.33;;;23.37;;
10045;SDS011;5063;50.878;4.742;2023-02-15T03:27:37;43.53;;;23.83;;
10045;SDS011;5063;50.878;4.742;2023-02-15T03:30:25;37.93;;;22.83;;
10045;SDS011;5063;50.878;4.742;2023-02-15T03:32:54;40.50;;;22.80;;
10045;SDS011;5063;50.878;4.742;2023-02-15T03:35:24;39.20;;;23.33;;
10045;SDS011;5063;50.878;4.742;2023-02-15T03:37:59;37.30;;;23.43;;
10045;SDS011;5063;50.878;4.742;2023-02-15T03:40:31;37.40;;;23.47;;
10045;SDS011;5063;50.878;4.742;2023-02-15T03:43:24;37.10;;;22.83;;
10045;SDS011;5063;50.878;4.742;2023-02-15T03:46:13;40.43;;;24.23;;
10045;SDS011;5063;50.878;4.742;2023-02-15T03:48:52;37.77;;;22.30;;
10045;SDS011;5063;50.878;4.742;2023-02-15T03:51:21;39.50;;;23.40;;
10045;SDS011;5063;50.878;4.742;2023-02-15T03:54:02;42.43;;;23.47;;
10045;SDS011;5063;50.878;4.742;2023-02-15T03:56:33;35.80;;;20.93;;
10045;SDS011;5063;50.878;4.742;2023-02-15T03:59:00;42.93;;;23.80;;
10045;SDS011;5063;50.878;4.742;2023-02-15T04:01:46;42.73;;;23.17;;
10045;SDS011;5063;50.878;4.742;2023-02-15T04:04:24;37.07;;;21.33;;
10045;SDS011;5063;50.878;4.742;2023-02-15T04:06:57;34.93;;;21.77;;
10045;SDS011;5063;50.878;4.742;2023-02-15T04:09:23;38.80;;;23.23;;
10045;SDS011;5063;50.878;4.742;2023-02-15T04:12:07;39.07;;;22.07;;
10045;SDS011;5063;50.878;4.742;2023-02-15T04:14:33;36.97;;;22.57;;
10045;SDS011;5063;50.878;4.742;2023-02-15T04:17:17;42.43;;;24.00;;
10045;SDS011;5063;50.878;4.742;2023-02-15T04:19:43;40.77;;;22.77;;
10045;SDS011;5063;50.878;4.742;2023-02-15T04:22:27;40.83;;;23.83;;
10045;SDS011;5063;50.878;4.742;2023-02-15T04:25:12;39.70;;;22.77;;
10045;SDS011;5063;50.878;4.742;2023-02-15T04:27:39;39.50;;;22.60;;
10045;SDS011;5063;50.878;4.742;2023-02-15T04:30:07;39.20;;;22.97;;
10045;SDS011;5063;50.878;4.742;2023-02-15T04:32:34;41.73;;;23.07;;
10045;SDS011;5063;50.878;4.742;2023-02-15T04:35:00;41.33;;;23.00;;
10045;SDS011;5063;50.878;4.742;2023-02-15T04:37:26;38.57;;;22.60;;
10045;SDS011;5063;50.878;4.742;2023-02-15T04:39:52;36.70;;;22.87;;
10045;SDS011;5063;50.878;4.742;2023-02-15T04:42:17;34.97;;;22.03;;
10045;SDS011;5063;50.878;4.742;2023-02-15T04:44:43;39.77;;;24.77;;
10045;SDS011;5063;50.878;4.742;2023-02-15T04:47:09;40.07;;;24.30;;
10045;SDS011;5063;50.878;4.742;2023-02-15T04:49:35;40.97;;;23.07;;
10045;SDS011;5063;50.878;4.742;2023-02-15T04:52:00;42.60;;;23.43;;
10045;SDS011;5063;50.878;4.742;2023-02-15T04:54:26;44.70;;;23.83;;
10045;SDS011;5063;50.878;4.742;2023-02-15T04:56:52;38.97;;;23.37;;
10045;SDS011;5063;50.878;4.742;2023-02-15T04:59:18;40.37;;;24.13;;
10045;SDS011;5063;50.878;4.742;2023-02-15T05:01:43;40.97;;;23.10;;
10045;SDS011;5063;50.878;4.742;2023-02-15T05:04:09;37.83;;;22.57;;
10045;SDS011;5063;50.878;4.742;2023-02-15T05:06:35;37.27;;;23.73;;
10045;SDS011;5063;50.878;4.742;2023-02-15T05:09:01;43.13;;;24.73;;
10045;SDS011;5063;50.878;4.742;2023-02-15T05:11:27;38.57;;;23.73;;
10045;SDS011;5063;50.878;4.742;2023-02-15T05:13:52;39.83;;;23.93;;
10045;SDS011;5063;50.878;4.742;2023-02-15T05:16:18;41.10;;;24.27;;
10045;SDS011;5063;50.878;4.742;2023-02-15T05:18:44;37.80;;;24.67;;
10045;SDS011;5063;50.878;4.742;2023-02-15T05:21:09;44.47;;;23.77;;
10045;SDS011;5063;50.878;4.742;2023-02-15T05:23:35;47.37;;;24.50;;
10045;SDS011;5063;50.878;4.742;2023-02-15T05:26:01;43.43;;;24.33;;
10045;SDS011;5063;50.878;4.742;2023-02-15T05:28:45;39.67;;;24.50;;
10045;SDS011;5063;50.878;4.742;2023-02-15T05:31:15;44.73;;;25.77;;
10045;SDS011;5063;50.878;4.742;2023-02-15T05:33:43;46.90;;;25.47;;
10045;SDS011;5063;50.878;4.742;2023-02-15T05:36:10;41.77;;;25.37;;
10045;SDS011;5063;50.878;4.742;2023-02-15T05:38:35;37.60;;;24.83;;
10045;SDS011;5063;50.878;4.742;2023-02-15T05:41:03;41.47;;;24.47;;
10045;SDS011;5063;50.878;4.742;2023-02-15T05:43:32;41.57;;;25.27;;
10045;SDS011;5063;50.878;4.742;2023-02-15T05:45:58;52.47;;;25.53;;
10045;SDS011;5063;50.878;4.742;2023-02-15T05:48:25;42.17;;;24.37;;
10045;SDS011;5063;50.878;4.742;2023-02-15T05:53:23;43.83;;;23.67;;
10045;SDS011;5063;50.878;4.742;2023-02-15T05:55:49;39.20;;;23.73;;
10045;SDS011;5063;50.878;4.742;2023-02-15T05:58:15;41.07;;;24.53;;
10045;SDS011;5063;50.878;4.742;2023-02-15T06:00:41;44.20;;;24.00;;
10045;SDS011;5063;50.878;4.742;2023-02-15T06:03:06;43.67;;;25.53;;
10045;SDS011;5063;50.878;4.742;2023-02-15T06:05:32;44.83;;;26.17;;
10045;SDS011;5063;50.878;4.742;2023-02-15T06:07:58;43.17;;;23.73;;
10045;SDS011;5063;50.878;4.742;2023-02-15T06:10:24;40.73;;;24.47;;
10045;SDS011;5063;50.878;4.742;2023-02-15T06:12:49;40.87;;;24.37;;
10045;SDS011;5063;50.878;4.742;2023-02-15T06:15:15;43.13;;;24.20;;
10045;SDS011;5063;50.878;4.742;2023-02-15T06:17:41;40.47;;;25.13;;
10045;SDS011;5063;50.878;4.742;2023-02-15T06:20:07;42.70;;;24.87;;
10045;SDS011;5063;50.878;4.742;2023-02-15T06:22:33;41.87;;;23.70;;
10045;SDS011;5063;50.878;4.742;2023-02-15T06:24:59;39.27;;;23.73;;
10045;SDS011;5063;50.878;4.742;2023-02-15T06:27:25;34.93;;;22.37;;
10045;SDS011;5063;50.878;4.742;2023-02-15T06:29:51;41.23;;;25.50;;
10045;SDS011;5063;50.878;4.742;2023-02-15T06:32:17;42.03;;;22.97;;
10045;SDS011;5063;50.878;4.742;2023-02-15T06:34:42;38.73;;;24.67;;
10045;SDS011;5063;50.878;4.742;2023-02-15T06:37:08;40.00;;;23.30;;
10045;SDS011;5063;50.878;4.742;2023-02-15T06:39:34;41.30;;;24.50;;
10045;SDS011;5063;50.878;4.742;2023-02-15T06:42:00;41.27;;;23.00;;
10045;SDS011;5063;50.878;4.742;2023-02-15T06:44:26;44.93;;;25.40;;
10045;SDS011;5063;50.878;4.742;2023-02-15T06:46:51;43.43;;;23.50;;
10045;SDS011;5063;50.878;4.742;2023-02-15T06:49:17;44.43;;;24.90;;
10045;SDS011;5063;50.878;4.742;2023-02-15T06:51:43;37.90;;;24.57;;
10045;SDS011;5063;50.878;4.742;2023-02-15T06:54:08;41.50;;;23.77;;
10045;SDS011;5063;50.878;4.742;2023-02-15T06:56:34;44.87;;;27.10;;
10045;SDS011;5063;50.878;4.742;2023-02-15T06:59:00;38.67;;;22.57;;
10045;SDS011;5063;50.878;4.742;2023-02-15T07:01:26;38.27;;;25.53;;
10045;SDS011;5063;50.878;4.742;2023-02-15T07:03:52;39.67;;;23.47;;
10045;SDS011;5063;50.878;4.742;2023-02-15T07:06:17;43.77;;;25.63;;
10045;SDS011;5063;50.878;4.742;2023-02-15T07:08:43;46.13;;;27.03;;
10045;SDS011;5063;50.878;4.742;2023-02-15T07:11:09;38.30;;;25.03;;
10045;SDS011;5063;50.878;4.742;2023-02-15T07:13:53;42.07;;;24.37;;
10045;SDS011;5063;50.878;4.742;2023-02-15T07:16:19;47.93;;;25.60;;
10045;SDS011;5063;50.878;4.742;2023-02-15T07:18:45;41.53;;;23.37;;
10045;SDS011;5063;50.878;4.742;2023-02-15T07:21:11;43.80;;;25.87;;
10045;SDS011;5063;50.878;4.742;2023-02-15T07:23:37;47.07;;;26.57;;
10045;SDS011;5063;50.878;4.742;2023-02-15T07:26:05;43.73;;;25.23;;
10045;SDS011;5063;50.878;4.742;2023-02-15T07:28:32;41.80;;;25.07;;
10045;SDS011;5063;50.878;4.742;2023-02-15T07:31:01;47.63;;;26.20;;
10045;SDS011;5063;50.878;4.742;2023-02-15T07:33:27;48.93;;;26.60;;
10045;SDS011;5063;50.878;4.742;2023-02-15T07:35:56;51.03;;;29.03;;
10045;SDS011;5063;50.878;4.742;2023-02-15T07:38:23;45.03;;;25.50;;
10045;SDS011;5063;50.878;4.742;2023-02-15T07:40:51;52.23;;;27.00;;
10045;SDS011;5063;50.878;4.742;2023-02-15T07:43:22;43.63;;;26.37;;
10045;SDS011;5063;50.878;4.742;2023-02-15T07:45:48;47.40;;;27.13;;
10045;SDS011;5063;50.878;4.742;2023-02-15T07:48:14;49.07;;;26.80;;
10045;SDS011;5063;50.878;4.742;2023-02-15T07:50:39;46.53;;;28.27;;
10045;SDS011;5063;50.878;4.742;2023-02-15T07:53:05;47.57;;;27.37;;
10045;SDS011;5063;50.878;4.742;2023-02-15T07:55:31;50.20;;;29.57;;
10045;SDS011;5063;50.878;4.742;2023-02-15T07:57:56;58.50;;;30.13;;
10045;SDS011;5063;50.878;4.742;2023-02-15T08:00:22;58.60;;;30.33;;
10045;SDS011;5063;50.878;4.742;2023-02-15T08:02:50;55.60;;;29.73;;
10045;SDS011;5063;50.878;4.742;2023-02-15T08:05:37;61.03;;;29.20;;
10045;SDS011;5063;50.878;4.742;2023-02-15T08:08:07;53.80;;;29.33;;
10045;SDS011;5063;50.878;4.742;2023-02-15T08:10:56;56.43;;;28.90;;
10045;SDS011;5063;50.878;4.742;2023-02-15T08:13:50;47.43;;;27.97;;
10045;SDS011;5063;50.878;4.742;2023-02-15T08:16:23;48.10;;;28.03;;
10045;SDS011;5063;50.878;4.742;2023-02-15T08:18:49;46.57;;;28.47;;
10045;SDS011;5063;50.878;4.742;2023-02-15T08:21:16;46.20;;;26.90;;
10045;SDS011;5063;50.878;4.742;2023-02-15T08:23:43;47.03;;;24.93;;
10045;SDS011;5063;50.878;4.742;2023-02-15T08:26:08;47.73;;;26.37;;
10045;SDS011;5063;50.878;4.742;2023-02-15T08:28:35;43.77;;;25.63;;
10045;SDS011;5063;50.878;4.742;2023-02-15T08:31:07;46.27;;;25.37;;
10045;SDS011;5063;50.878;4.742;2023-02-15T08:33:34;35.80;;;24.40;;
10045;SDS011;5063;50.878;4.742;2023-02-15T08:36:05;39.30;;;23.87;;
10045;SDS011;5063;50.878;4.742;2023-02-15T08:38:33;40.87;;;23.67;;
10045;SDS011;5063;50.878;4.742;2023-02-15T08:41:13;33.10;;;21.80;;
10045;SDS011;5063;50.878;4.742;2023-02-15T08:43:39;36.43;;;23.07;;
10045;SDS011;5063;50.878;4.742;2023-02-15T08:46:06;33.33;;;21.40;;
10045;SDS011;5063;50.878;4.742;2023-02-15T08:48:32;34.13;;;21.87;;
10045;SDS011;5063;50.878;4.742;2023-02-15T08:50:58;35.80;;;21.77;;
10045;SDS011;5063;50.878;4.742;2023-02-15T08:53:30;37.27;;;23.23;;
10045;SDS011;5063;50.878;4.742;2023-02-15T08:55:56;34.43;;;21.63;;
10045;SDS011;5063;50.878;4.742;2023-02-15T08:58:22;39.17;;;22.37;;
10045;SDS011;5063;50.878;4.742;2023-02-15T09:00:49;35.07;;;21.43;;
10045;SDS011;5063;50.878;4.742;2023-02-15T09:03:15;35.70;;;20.77;;
10045;SDS011;5063;50.878;4.742;2023-02-15T09:05:41;31.10;;;20.60;;
10045;SDS011;5063;50.878;4.742;2023-02-15T09:08:06;36.60;;;22.07;;
10045;SDS011;5063;50.878;4.742;2023-02-15T09:10:32;33.07;;;20.37;;
10045;SDS011;5063;50.878;4.742;2023-02-15T09:12:58;29.77;;;20.37;;
10045;SDS011;5063;50.878;4.742;2023-02-15T09:15:24;34.00;;;21.23;;
10045;SDS011;5063;50.878;4.742;2023-02-15T09:17:50;32.93;;;20.53;;
10045;SDS011;5063;50.878;4.742;2023-02-15T09:20:15;35.63;;;20.97;;
10045;SDS011;5063;50.878;4.742;2023-02-15T09:22:41;30.80;;;19.43;;
10045;SDS011;5063;50.878;4.742;2023-02-15T09:25:07;33.50;;;20.07;;
10045;SDS011;5063;50.878;4.742;2023-02-15T09:27:33;31.40;;;20.73;;
10045;SDS011;5063;50.878;4.742;2023-02-15T09:29:58;34.50;;;21.47;;
10045;SDS011;5063;50.878;4.742;2023-02-15T09:32:24;31.97;;;20.83;;
10045;SDS011;5063;50.878;4.742;2023-02-15T09:34:50;33.27;;;21.17;;
10045;SDS011;5063;50.878;4.742;2023-02-15T09:37:16;27.77;;;18.83;;
10045;SDS011;5063;50.878;4.742;2023-02-15T09:39:42;32.57;;;21.10;;
10045;SDS011;5063;50.878;4.742;2023-02-15T09:47:10;31.53;;;19.80;;
10045;SDS011;5063;50.878;4.742;2023-02-15T09:52:29;30.23;;;18.90;;
10045;SDS011;5063;50.878;4.742;2023-02-15T10:03:40;29.20;;;19.17;;
10045;SDS011;5063;50.878;4.742;2023-02-15T10:06:15;30.13;;;18.17;;
10045;SDS011;5063;50.878;4.742;2023-02-15T10:09:06;29.07;;;19.27;;
10045;SDS011;5063;50.878;4.742;2023-02-15T10:14:20;28.63;;;18.80;;
10045;SDS011;5063;50.878;4.742;2023-02-15T10:17:11;33.57;;;18.57;;
10045;SDS011;5063;50.878;4.742;2023-02-15T10:22:56;27.27;;;19.37;;
10045;SDS011;5063;50.878;4.742;2023-02-15T10:25:51;32.23;;;18.47;;
10045;SDS011;5063;50.878;4.742;2023-02-15T10:31:22;25.97;;;18.47;;
10045;SDS011;5063;50.878;4.742;2023-02-15T10:34:12;25.70;;;16.83;;
10045;SDS011;5063;50.878;4.742;2023-02-15T10:46:05;29.30;;;17.10;;
10045;SDS011;5063;50.878;4.742;2023-02-15T10:51:00;25.03;;;15.27;;
10045;SDS011;5063;50.878;4.742;2023-02-15T10:53:42;21.67;;;15.87;;
10045;SDS011;5063;50.878;4.742;2023-02-15T11:00:04;22.50;;;15.73;;
10045;SDS011;5063;50.878;4.742;2023-02-15T11:05:27;25.17;;;15.77;;
10045;SDS011;5063;50.878;4.742;2023-02-15T11:07:59;27.07;;;16.63;;
10045;SDS011;5063;50.878;4.742;2023-02-15T11:13:18;25.83;;;17.33;;
10045;SDS011;5063;50.878;4.742;2023-02-15T11:15:55;28.37;;;16.87;;
10045;SDS011;5063;50.878;4.742;2023-02-15T11:23:57;25.67;;;16.40;;
10045;SDS011;5063;50.878;4.742;2023-02-15T11:29:13;28.40;;;17.67;;
10045;SDS011;5063;50.878;4.742;2023-02-15T11:31:41;26.77;;;17.27;;
10045;SDS011;5063;50.878;4.742;2023-02-15T11:34:16;24.50;;;16.73;;
10045;SDS011;5063;50.878;4.742;2023-02-15T11:36:52;33.40;;;16.77;;
10045;SDS011;5063;50.878;4.742;2023-02-15T11:39:20;27.60;;;17.57;;
10045;SDS011;5063;50.878;4.742;2023-02-15T11:41:49;25.70;;;16.83;;
10045;SDS011;5063;50.878;4.742;2023-02-15T11:46:51;26.67;;;17.57;;
10045;SDS011;5063;50.878;4.742;2023-02-15T11:49:26;31.23;;;17.57;;
10045;SDS011;5063;50.878;4.742;2023-02-15T11:51:56;28.40;;;17.43;;
10045;SDS011;5063;50.878;4.742;2023-02-15T11:54:27;26.07;;;17.50;;
10045;SDS011;5063;50.878;4.742;2023-02-15T11:57:00;25.53;;;16.97;;
10045;SDS011;5063;50.878;4.742;2023-02-15T11:59:38;24.23;;;16.00;;
10045;SDS011;5063;50.878;4.742;2023-02-15T12:02:26;26.77;;;18.03;;
10045;SDS011;5063;50.878;4.742;2023-02-15T12:04:59;23.50;;;16.93;;
10045;SDS011;5063;50.878;4.742;2023-02-15T12:07:32;28.93;;;17.60;;
10045;SDS011;5063;50.878;4.742;2023-02-15T12:10:22;27.43;;;17.63;;
10045;SDS011;5063;50.878;4.742;2023-02-15T12:15:45;31.60;;;18.80;;
10045;SDS011;5063;50.878;4.742;2023-02-15T12:18:24;28.20;;;16.43;;
10045;SDS011;5063;50.878;4.742;2023-02-15T12:21:08;29.20;;;18.43;;
10045;SDS011;5063;50.878;4.742;2023-02-15T12:23:57;26.90;;;16.77;;
10045;SDS011;5063;50.878;4.742;2023-02-15T12:26:34;26.17;;;17.27;;
10045;SDS011;5063;50.878;4.742;2023-02-15T12:29:06;31.27;;;18.47;;
10045;SDS011;5063;50.878;4.742;2023-02-15T12:31:40;28.40;;;17.67;;
10045;SDS011;5063;50.878;4.742;2023-02-15T12:34:12;29.30;;;19.03;;
10045;SDS011;5063;50.878;4.742;2023-02-15T12:36:48;29.87;;;19.30;;
10045;SDS011;5063;50.878;4.742;2023-02-15T12:39:32;30.60;;;17.87;;
10045;SDS011;5063;50.878;4.742;2023-02-15T12:44:30;31.20;;;18.70;;
10045;SDS011;5063;50.878;4.742;2023-02-15T12:47:19;28.97;;;18.50;;
10045;SDS011;5063;50.878;4.742;2023-02-15T12:49:44;28.87;;;18.37;;
10045;SDS011;5063;50.878;4.742;2023-02-15T12:52:36;31.07;;;19.30;;
10045;SDS011;5063;50.878;4.742;2023-02-15T12:55:17;31.10;;;19.17;;
10045;SDS011;5063;50.878;4.742;2023-02-15T12:57:45;32.67;;;19.37;;
10045;SDS011;5063;50.878;4.742;2023-02-15T13:05:17;33.03;;;18.60;;
10045;SDS011;5063;50.878;4.742;2023-02-15T13:08:20;29.80;;;19.63;;
10045;SDS011;5063;50.878;4.742;2023-02-15T13:11:11;29.00;;;18.77;;
10045;SDS011;5063;50.878;4.742;2023-02-15T13:13:59;30.60;;;19.17;;
10045;SDS011;5063;50.878;4.742;2023-02-15T13:16:32;31.40;;;19.67;;
10045;SDS011;5063;50.878;4.742;2023-02-15T13:19:04;32.10;;;19.57;;
10045;SDS011;5063;50.878;4.742;2023-02-15T13:21:38;27.00;;;17.87;;
10045;SDS011;5063;50.878;4.742;2023-02-15T13:24:27;28.93;;;18.40;;
10045;SDS011;5063;50.878;4.742;2023-02-15T13:26:55;28.40;;;18.70;;
10045;SDS011;5063;50.878;4.742;2023-02-15T13:31:50;32.40;;;19.97;;
10045;SDS011;5063;50.878;4.742;2023-02-15T13:34:20;33.17;;;18.87;;
10045;SDS011;5063;50.878;4.742;2023-02-15T13:42:32;30.53;;;19.47;;
10045;SDS011;5063;50.878;4.742;2023-02-15T13:47:59;29.23;;;18.37;;
10045;SDS011;5063;50.878;4.742;2023-02-15T13:53:24;31.63;;;20.10;;
10045;SDS011;5063;50.878;4.742;2023-02-15T13:55:55;29.37;;;20.00;;
10045;SDS011;5063;50.878;4.742;2023-02-15T13:58:51;29.93;;;19.27;;
10045;SDS011;5063;50.878;4.742;2023-02-15T14:01:28;28.83;;;18.73;;
10045;SDS011;5063;50.878;4.742;2023-02-15T14:06:56;30.97;;;19.17;;
10045;SDS011;5063;50.878;4.742;2023-02-15T14:09:55;27.73;;;18.23;;
10045;SDS011;5063;50.878;4.742;2023-02-15T14:15:49;30.50;;;19.47;;
10045;SDS011;5063;50.878;4.742;2023-02-15T14:31:52;30.53;;;19.93;;
10045;SDS011;5063;50.878;4.742;2023-02-15T14:34:25;29.73;;;17.63;;
10045;SDS011;5063;50.878;4.742;2023-02-15T14:36:59;32.20;;;19.50;;
10045;SDS011;5063;50.878;4.742;2023-02-15T14:48:25;33.17;;;19.23;;
10045;SDS011;5063;50.878;4.742;2023-02-15T14:50:43;33.23;;;19.10;;
10045;SDS011;5063;50.878;4.742;2023-02-15T14:58:35;28.03;;;18.53;;
10045;SDS011;5063;50.878;4.742;2023-02-15T15:01:24;27.60;;;17.63;;
10045;SDS011;5063;50.878;4.742;2023-02-15T15:03:51;37.47;;;20.33;;
10045;SDS011;5063;50.878;4.742;2023-02-15T15:06:26;31.43;;;19.03;;
10045;SDS011;5063;50.878;4.742;2023-02-15T15:08:55;30.67;;;20.33;;
10045;SDS011;5063;50.878;4.742;2023-02-15T15:11:47;33.50;;;20.13;;
10045;SDS011;5063;50.878;4.742;2023-02-15T15:14:38;32.50;;;20.83;;
10045;SDS011;5063;50.878;4.742;2023-02-15T15:17:04;25.93;;;18.90;;
10045;SDS011;5063;50.878;4.742;2023-02-15T15:22:22;33.70;;;20.63;;
10045;SDS011;5063;50.878;4.742;2023-02-15T15:24:53;32.93;;;20.83;;
10045;SDS011;5063;50.878;4.742;2023-02-15T15:35:24;29.00;;;20.17;;
10045;SDS011;5063;50.878;4.742;2023-02-15T15:46:35;30.97;;;19.67;;
10045;SDS011;5063;50.878;4.742;2023-02-15T15:49:31;30.47;;;19.80;;
10045;SDS011;5063;50.878;4.742;2023-02-15T15:52:07;31.53;;;20.27;;
10045;SDS011;5063;50.878;4.742;2023-02-15T15:54:39;29.83;;;19.23;;
10045;SDS011;5063;50.878;4.742;2023-02-15T15:57:11;31.93;;;20.83;;
10045;SDS011;5063;50.878;4.742;2023-02-15T15:59:58;32.50;;;20.30;;
10045;SDS011;5063;50.878;4.742;2023-02-15T16:02:24;28.73;;;19.40;;
10045;SDS011;5063;50.878;4.742;2023-02-15T16:04:51;32.93;;;21.27;;
10045;SDS011;5063;50.878;4.742;2023-02-15T16:10:04;31.40;;;19.67;;
10045;SDS011;5063;50.878;4.742;2023-02-15T16:12:35;34.87;;;21.53;;
10045;SDS011;5063;50.878;4.742;2023-02-15T16:17:43;31.30;;;20.23;;
10045;SDS011;5063;50.878;4.742;2023-02-15T16:20:15;32.87;;;20.87;;
10045;SDS011;5063;50.878;4.742;2023-02-15T16:22:48;36.50;;;21.73;;
10045;SDS011;5063;50.878;4.742;2023-02-15T16:28:20;33.00;;;21.10;;
10045;SDS011;5063;50.878;4.742;2023-02-15T16:30:54;37.17;;;21.50;;
10045;SDS011;5063;50.878;4.742;2023-02-15T16:33:37;33.80;;;20.23;;
10045;SDS011;5063;50.878;4.742;2023-02-15T16:36:04;33.20;;;21.13;;
10045;SDS011;5063;50.878;4.742;2023-02-15T16:41:08;34.13;;;22.20;;
10045;SDS011;5063;50.878;4.742;2023-02-15T16:43:38;34.30;;;22.23;;
10045;SDS011;5063;50.878;4.742;2023-02-15T16:46:15;27.80;;;20.00;;
10045;SDS011;5063;50.878;4.742;2023-02-15T16:49:04;35.07;;;23.23;;
10045;SDS011;5063;50.878;4.742;2023-02-15T16:51:44;41.43;;;23.30;;
10045;SDS011;5063;50.878;4.742;2023-02-15T16:54:23;30.97;;;20.77;;
10045;SDS011;5063;50.878;4.742;2023-02-15T16:56:50;33.83;;;22.20;;
10045;SDS011;5063;50.878;4.742;2023-02-15T16:59:38;30.53;;;21.73;;
10045;SDS011;5063;50.878;4.742;2023-02-15T17:02:20;35.83;;;22.97;;
10045;SDS011;5063;50.878;4.742;2023-02-15T17:05:13;37.47;;;24.50;;
10045;SDS011;5063;50.878;4.742;2023-02-15T17:07:51;38.37;;;22.50;;
10045;SDS011;5063;50.878;4.742;2023-02-15T17:10:44;35.93;;;23.63;;
10045;SDS011;5063;50.878;4.742;2023-02-15T17:13:31;38.77;;;23.13;;
10045;SDS011;5063;50.878;4.742;2023-02-15T17:18:29;35.23;;;22.83;;
10045;SDS011;5063;50.878;4.742;2023-02-15T17:20:58;34.97;;;23.73;;
10045;SDS011;5063;50.878;4.742;2023-02-15T17:25:57;40.47;;;24.27;;
10045;SDS011;5063;50.878;4.742;2023-02-15T17:28:26;37.90;;;24.43;;
10045;SDS011;5063;50.878;4.742;2023-02-15T17:30:54;41.07;;;26.40;;
10045;SDS011;5063;50.878;4.742;2023-02-15T17:33:26;43.13;;;27.00;;
10045;SDS011;5063;50.878;4.742;2023-02-15T17:36:05;39.80;;;25.93;;
10045;SDS011;5063;50.878;4.742;2023-02-15T17:38:33;39.63;;;25.40;;
10045;SDS011;5063;50.878;4.742;2023-02-15T17:41:01;39.17;;;24.10;;
10045;SDS011;5063;50.878;4.742;2023-02-15T17:43:28;38.93;;;24.93;;
10045;SDS011;5063;50.878;4.742;2023-02-15T17:45:54;37.80;;;25.60;;
10045;SDS011;5063;50.878;4.742;2023-02-15T17:48:22;41.70;;;25.87;;
10045;SDS011;5063;50.878;4.742;2023-02-15T17:50:59;41.17;;;25.33;;
10045;SDS011;5063;50.878;4.742;2023-02-15T17:53:26;37.33;;;24.40;;
10045;SDS011;5063;50.878;4.742;2023-02-15T17:55:52;42.27;;;25.70;;
10045;SDS011;5063;50.878;4.742;2023-02-15T17:58:18;39.90;;;25.20;;
10045;SDS011;5063;50.878;4.742;2023-02-15T18:00:52;41.70;;;26.00;;
10045;SDS011;5063;50.878;4.742;2023-02-15T18:03:46;36.83;;;24.20;;
10045;SDS011;5063;50.878;4.742;2023-02-15T18:06:33;35.00;;;24.20;;